Time;durP1;ratioP1;P1;durP2;ratioP2;P2;SDS_P1;SDS_P2;PMS_P1;PMS_P2;Temp;Humidity;BMP_temperature;BMP_pressure;BME280_temperature;BME280_humidity;BME280_pressure;Samples;Min_cycle;Max_cycle;Signal;HPM_P1;HPM_P2
2023/09/10 00:01:10;;;;;;;;;;;;;;;;;;4964312;28;20337;-58
2023/09/10 00:03:38;;;;;;;;;;;;;;;;;;4946242;28;19980;-59
2023/09/10 00:06:07;;;;;;;;;;;;;;;;;;4954564;28;19918;-59
2023/09/10 00:08:33;;;;;;;;;;;;;;;;;;4948846;28;19941;-59
2023/09/10 00:10:58;;;;;;;;;;;;;;;;;;4949604;28;19922;-59
2023/09/10 00:13:29;;;;;;;;;;;;;;;;;;4952811;28;19965;-59
2023/09/10 00:15:59;;;;;;;;;;;;;;;;;;4954142;28;19925;-59
2023/09/10 00:18:24;;;;;;;;;;;;;;;;;;4954232;28;19969;-59
2023/09/10 00:20:49;;;;;;;;;;;;;;;;;;4953151;28;20309;-59
2023/09/10 00:23:14;;;;;;;;;;;;;;;;;;4955487;28;19922;-59
2023/09/10 00:25:40;;;;;;;;;;;;;;;;;;4955097;28;19922;-59
2023/09/10 00:28:08;;;;;;;;;;;;;;;;;;4950566;28;19922;-59
2023/09/10 00:30:33;;;;;;;;;;;;;;;;;;4950763;28;20017;-59
2023/09/10 00:32:58;;;;;;;;;;;;;;;;;;4951448;28;19922;-61
2023/09/10 00:35:26;;;;;;;;;;;;;;;;;;4951970;28;20009;-59
2023/09/10 00:37:52;;;;;;;;;;;;;;;;;;4953365;28;19930;-60
2023/09/10 00:40:20;;;;;;;;;;;;;;;;;;4969899;28;20004;-59
2023/09/10 00:42:45;;;;;;;;;;;;;;;;;;4960982;28;19921;-59
2023/09/10 00:45:10;;;;;;;;;;;;;;;;;;4974753;28;19921;-59
2023/09/10 00:47:35;;;;;;;;;;;;;;;;;;4989992;28;19937;-59
2023/09/10 00:50:03;;;;;;;;;;;;;;;;;;4973995;28;20297;-59
2023/09/10 00:52:31;;;;;;;;;;;;;;;;;;4975160;28;20026;-59
2023/09/10 00:55:01;;;;;;;;;;;;;;;;;;4993447;28;20020;-60
2023/09/10 00:57:30;;;;;;;;;;;;;;;;;;4975650;28;21616;-60
2023/09/10 01:00:00;;;;;;;;;;;;;;;;;;4990209;28;19929;-61
2023/09/10 01:02:26;;;;;;;;;;;;;;;;;;4993291;28;20027;-60
2023/09/10 01:04:55;;;;;;;;;;;;;;;;;;4991919;28;20708;-60
2023/09/10 01:07:23;;;;;;;;;;;;;;;;;;4994479;28;20341;-60
2023/09/10 01:09:48;;;;;;;;;;;;;;;;;;4992808;28;19921;-60
2023/09/10 01:12:16;;;;;;;;;;;;;;;;;;4993831;28;19924;-60
2023/09/10 01:14:42;;;;;;;;;;;;;;;;;;4992641;28;19965;-60
2023/09/10 01:17:07;;;;;;;;;;;;;;;;;;4973303;28;19925;-60
2023/09/10 01:19:36;;;;;;;;;;;;;;;;;;4991420;28;19968;-60
2023/09/10 01:22:04;;;;;;;;;;;;;;;;;;4990869;28;19925;-60
2023/09/10 01:24:30;;;;;;;;;;;;;;;;;;4992019;28;19917;-60
2023/09/10 01:26:56;;;;;;;;;;;;;;;;;;4993067;28;19925;-60
2023/09/10 01:29:23;;;;;;;;;;;;;;;;;;4990556;28;19940;-60
2023/09/10 01:31:51;;;;;;;;;;;;;;;;;;4991080;28;19925;-60
2023/09/10 01:34:20;;;;;;;;;;;;;;;;;;4970775;28;19922;-60
2023/09/10 01:36:46;;;;;;;;;;;;;;;;;;4987827;28;19917;-60
2023/09/10 01:39:11;;;;;;;;;;;;;;;;;;4990176;28;20385;-60
2023/09/10 01:41:36;;;;;;;;;;;;;;;;;;4989851;28;19933;-60
2023/09/10 01:44:02;;;;;;;;;;;;;;;;;;4990423;28;20617;-60
2023/09/10 01:46:32;;;;;;;;;;;;;;;;;;4989389;28;19921;-59
2023/09/10 01:48:58;;;;;;;;;;;;;;;;;;4992171;28;20181;-59
2023/09/10 01:51:27;;;;;;;;;;;;;;;;;;4992088;28;20012;-59
2023/09/10 01:53:52;;;;;;;;;;;;;;;;;;4993917;28;20323;-60
2023/09/10 01:56:21;;;;;;;;;;;;;;;;;;4972509;28;19932;-59
2023/09/10 01:58:48;;;;;;;;;;;;;;;;;;4975407;28;19951;-59
2023/09/10 02:01:13;;;;;;;;;;;;;;;;;;4972572;28;19921;-59
2023/09/10 02:03:38;;;;;;;;;;;;;;;;;;4990078;28;19921;-59
2023/09/10 02:06:04;;;;;;;;;;;;;;;;;;4972892;28;20071;-59
2023/09/10 02:08:34;;;;;;;;;;;;;;;;;;4990154;28;20028;-59
2023/09/10 02:11:02;;;;;;;;;;;;;;;;;;4990239;28;19951;-58
2023/09/10 02:13:27;;;;;;;;;;;;;;;;;;4992361;28;20004;-59
2023/09/10 02:15:55;;;;;;;;;;;;;;;;;;4972912;28;19921;-60
2023/09/10 02:18:22;;;;;;;;;;;;;;;;;;4973788;28;21016;-61
2023/09/10 02:20:50;;;;;;;;;;;;;;;;;;4957077;28;20020;-58
2023/09/10 02:23:15;;;;;;;;;;;;;;;;;;4986772;28;19922;-60
2023/09/10 02:25:40;;;;;;;;;;;;;;;;;;4990504;28;20025;-59
2023/09/10 02:28:07;;;;;;;;;;;;;;;;;;4992175;28;20004;-59
2023/09/10 02:30:33;;;;;;;;;;;;;;;;;;4988411;28;19921;-60
2023/09/10 02:33:01;;;;;;;;;;;;;;;;;;4989464;28;20079;-59
2023/09/10 02:35:26;;;;;;;;;;;;;;;;;;4990560;28;19918;-59
2023/09/10 02:37:52;;;;;;;;;;;;;;;;;;4988363;28;19921;-59
2023/09/10 02:40:17;;;;;;;;;;;;;;;;;;4991755;28;19924;-59
2023/09/10 02:42:45;;;;;;;;;;;;;;;;;;4973009;28;20383;-59
2023/09/10 02:45:13;;;;;;;;;;;;;;;;;;4961928;28;19917;-59
2023/09/10 02:47:38;;;;;;;;;;;;;;;;;;4988683;28;19932;-60
2023/09/10 02:50:04;;;;;;;;;;;;;;;;;;4987523;28;21819;-59
2023/09/10 02:52:32;;;;;;;;;;;;;;;;;;4971200;28;19921;-59
2023/09/10 02:54:57;;;;;;;;;;;;;;;;;;4987451;28;19968;-59
2023/09/10 02:57:22;;;;;;;;;;;;;;;;;;4990196;28;19922;-59
2023/09/10 02:59:48;;;;;;;;;;;;;;;;;;4989793;28;20958;-59
2023/09/10 03:02:13;;;;;;;;;;;;;;;;;;4989289;28;19936;-59
2023/09/10 03:04:41;;;;;;;;;;;;;;;;;;4989049;28;22061;-59
2023/09/10 03:07:06;;;;;;;;;;;;;;;;;;4974903;28;19925;-60
2023/09/10 03:09:34;;;;;;;;;;;;;;;;;;4973649;28;19921;-59
2023/09/10 03:11:59;;;;;;;;;;;;;;;;;;4989986;28;20935;-59
2023/09/10 03:14:25;;;;;;;;;;;;;;;;;;4971362;28;19918;-59
2023/09/10 03:16:51;;;;;;;;;;;;;;;;;;4970172;28;19960;-59
2023/09/10 03:19:16;;;;;;;;;;;;;;;;;;4987136;28;20051;-59
2023/09/10 03:21:44;;;;;;;;;;;;;;;;;;4988316;28;19976;-59
2023/09/10 03:24:09;;;;;;;;;;;;;;;;;;4989882;28;20380;-59
2023/09/10 03:26:37;;;;;;;;;;;;;;;;;;4990680;28;20002;-59
2023/09/10 03:29:05;;;;;;;;;;;;;;;;;;4989530;28;20012;-59
2023/09/10 03:31:30;;;;;;;;;;;;;;;;;;4969669;28;20020;-59
2023/09/10 03:33:55;;;;;;;;;;;;;;;;;;4969789;28;20756;-59
2023/09/10 03:36:21;;;;;;;;;;;;;;;;;;4989666;28;20368;-59
2023/09/10 03:38:48;;;;;;;;;;;;;;;;;;4990338;28;19948;-59
2023/09/10 03:41:14;;;;;;;;;;;;;;;;;;4972795;28;19944;-59
2023/09/10 03:43:42;;;;;;;;;;;;;;;;;;4988542;28;19960;-59
2023/09/10 03:46:08;;;;;;;;;;;;;;;;;;4985504;28;20015;-59
2023/09/10 03:48:36;;;;;;;;;;;;;;;;;;4991847;28;19980;-59
2023/09/10 03:51:01;;;;;;;;;;;;;;;;;;4992199;28;19921;-59
2023/09/10 03:53:28;;;;;;;;;;;;;;;;;;4991294;28;19921;-59
2023/09/10 03:55:54;;;;;;;;;;;;;;;;;;4976185;28;20733;-59
2023/09/10 03:58:19;;;;;;;;;;;;;;;;;;4979420;28;19928;-59
2023/09/10 04:00:44;;;;;;;;;;;;;;;;;;4990955;28;19980;-59
2023/09/10 04:03:09;;;;;;;;;;;;;;;;;;4994033;28;19979;-59
2023/09/10 04:05:35;;;;;;;;;;;;;;;;;;4991757;28;19924;-59
2023/09/10 04:08:00;;;;;;;;;;;;;;;;;;4975313;28;19937;-59
2023/09/10 04:10:31;;;;;;;;;;;;;;;;;;4992590;28;20043;-59
2023/09/10 04:12:58;;;;;;;;;;;;;;;;;;4972760;28;19943;-59
2023/09/10 04:15:23;;;;;;;;;;;;;;;;;;4990684;28;19921;-60
2023/09/10 04:17:49;;;;;;;;;;;;;;;;;;4977029;28;19921;-60
2023/09/10 04:20:21;;;;;;;;;;;;;;;;;;4973889;28;19929;-59
2023/09/10 04:22:46;;;;;;;;;;;;;;;;;;4994515;28;20459;-60
2023/09/10 04:25:14;;;;;;;;;;;;;;;;;;4989346;28;20024;-60
2023/09/10 04:27:40;;;;;;;;;;;;;;;;;;4988079;28;19925;-59
2023/09/10 04:30:08;;;;;;;;;;;;;;;;;;4976244;28;20060;-59
2023/09/10 04:32:35;;;;;;;;;;;;;;;;;;4989316;28;20297;-60
2023/09/10 04:35:04;;;;;;;;;;;;;;;;;;4992760;28;20018;-60
2023/09/10 04:37:30;;;;;;;;;;;;;;;;;;4990677;28;19999;-59
2023/09/10 04:39:55;;;;;;;;;;;;;;;;;;4973326;28;21771;-60
2023/09/10 04:42:23;;;;;;;;;;;;;;;;;;4989563;28;19918;-60
2023/09/10 04:44:49;;;;;;;;;;;;;;;;;;4992843;28;19999;-60
2023/09/10 04:47:14;;;;;;;;;;;;;;;;;;4990217;28;19928;-60
2023/09/10 04:49:42;;;;;;;;;;;;;;;;;;4992632;28;20649;-60
2023/09/10 04:52:10;;;;;;;;;;;;;;;;;;4978632;28;19924;-60
2023/09/10 04:54:35;;;;;;;;;;;;;;;;;;4987807;28;20336;-60
2023/09/10 04:57:00;;;;;;;;;;;;;;;;;;4990631;28;19932;-59
2023/09/10 04:59:25;;;;;;;;;;;;;;;;;;4992988;28;20300;-59
2023/09/10 05:01:53;;;;;;;;;;;;;;;;;;4989597;28;19921;-60
2023/09/10 05:04:21;;;;;;;;;;;;;;;;;;4990962;28;20020;-59
2023/09/10 05:06:49;;;;;;;;;;;;;;;;;;4989869;28;19975;-59
2023/09/10 05:09:14;;;;;;;;;;;;;;;;;;4974859;28;19925;-59
2023/09/10 05:11:42;;;;;;;;;;;;;;;;;;4990179;28;20378;-60
2023/09/10 05:14:07;;;;;;;;;;;;;;;;;;4991396;28;19928;-60
2023/09/10 05:16:35;;;;;;;;;;;;;;;;;;4974478;28;19924;-60
2023/09/10 05:19:03;;;;;;;;;;;;;;;;;;4971293;28;20007;-60
2023/09/10 05:21:29;;;;;;;;;;;;;;;;;;4979024;28;19964;-60
2023/09/10 05:23:57;;;;;;;;;;;;;;;;;;4990476;28;20004;-60
2023/09/10 05:26:22;;;;;;;;;;;;;;;;;;4989218;28;20418;-60
2023/09/10 05:28:51;;;;;;;;;;;;;;;;;;4972357;28;20242;-60
2023/09/10 05:31:19;;;;;;;;;;;;;;;;;;4991931;28;20276;-59
2023/09/10 05:33:44;;;;;;;;;;;;;;;;;;4973115;28;20039;-60
2023/09/10 05:36:09;;;;;;;;;;;;;;;;;;4991761;28;19921;-59
2023/09/10 05:38:34;;;;;;;;;;;;;;;;;;4992290;28;19929;-60
2023/09/10 05:41:00;;;;;;;;;;;;;;;;;;4992008;28;19932;-60
2023/09/10 05:43:26;;;;;;;;;;;;;;;;;;4971429;28;19937;-60
2023/09/10 05:45:52;;;;;;;;;;;;;;;;;;4986173;28;19918;-60
2023/09/10 05:48:17;;;;;;;;;;;;;;;;;;4973427;28;20024;-60
2023/09/10 05:50:42;;;;;;;;;;;;;;;;;;4986921;28;19947;-60
2023/09/10 05:53:12;;;;;;;;;;;;;;;;;;4987062;28;19917;-60
2023/09/10 05:55:38;;;;;;;;;;;;;;;;;;4971112;28;19917;-61
2023/09/10 05:58:06;;;;;;;;;;;;;;;;;;4968395;28;20527;-60
2023/09/10 06:00:31;;;;;;;;;;;;;;;;;;4970601;28;19921;-60
2023/09/10 06:02:59;;;;;;;;;;;;;;;;;;4987180;28;20380;-60
2023/09/10 06:05:27;;;;;;;;;;;;;;;;;;4986457;28;20020;-60
2023/09/10 06:07:55;;;;;;;;;;;;;;;;;;4985301;28;19975;-60
2023/09/10 06:10:20;;;;;;;;;;;;;;;;;;4986395;28;19926;-60
2023/09/10 06:12:50;;;;;;;;;;;;;;;;;;4972117;28;19933;-60
2023/09/10 06:15:16;;;;;;;;;;;;;;;;;;4987331;28;19921;-60
2023/09/10 06:17:41;;;;;;;;;;;;;;;;;;4971005;28;19921;-60
2023/09/10 06:20:06;;;;;;;;;;;;;;;;;;4974538;28;19929;-59
2023/09/10 06:22:32;;;;;;;;;;;;;;;;;;4985321;28;20833;-59
2023/09/10 06:25:00;;;;;;;;;;;;;;;;;;4971974;28;20009;-60
2023/09/10 06:27:28;;;;;;;;;;;;;;;;;;4983901;28;19921;-60
2023/09/10 06:29:55;;;;;;;;;;;;;;;;;;4969049;28;19999;-60
2023/09/10 06:32:21;;;;;;;;;;;;;;;;;;4970555;28;19921;-60
2023/09/10 06:34:48;;;;;;;;;;;;;;;;;;4985438;28;19922;-60
2023/09/10 06:37:14;;;;;;;;;;;;;;;;;;4971215;28;20456;-60
2023/09/10 06:39:41;;;;;;;;;;;;;;;;;;4970136;28;19925;-60
2023/09/10 06:42:10;;;;;;;;;;;;;;;;;;4972122;28;21858;-59
2023/09/10 06:44:35;;;;;;;;;;;;;;;;;;4985197;28;20024;-60
2023/09/10 06:47:03;;;;;;;;;;;;;;;;;;4985819;28;20069;-60
2023/09/10 06:49:31;;;;;;;;;;;;;;;;;;4971650;28;20013;-60
2023/09/10 06:51:56;;;;;;;;;;;;;;;;;;4970651;28;19960;-61
2023/09/10 06:54:22;;;;;;;;;;;;;;;;;;4971032;28;19922;-60
2023/09/10 06:56:50;;;;;;;;;;;;;;;;;;4969812;28;19918;-60
2023/09/10 06:59:18;;;;;;;;;;;;;;;;;;4970767;28;19960;-60
2023/09/10 07:01:46;;;;;;;;;;;;;;;;;;4984451;28;19924;-59
2023/09/10 07:04:14;;;;;;;;;;;;;;;;;;4985916;28;19917;-60
2023/09/10 07:06:39;;;;;;;;;;;;;;;;;;4969923;28;19968;-60
2023/09/10 07:09:07;;;;;;;;;;;;;;;;;;4969561;28;20329;-59
2023/09/10 07:11:32;;;;;;;;;;;;;;;;;;4986264;28;19941;-61
2023/09/10 07:13:59;;;;;;;;;;;;;;;;;;4985963;28;20786;-60
2023/09/10 07:16:27;;;;;;;;;;;;;;;;;;4970071;28;19917;-62
2023/09/10 07:18:55;;;;;;;;;;;;;;;;;;4984671;28;19924;-60
2023/09/10 07:21:20;;;;;;;;;;;;;;;;;;4985546;28;19925;-60
2023/09/10 07:23:48;;;;;;;;;;;;;;;;;;4967841;28;19918;-60
2023/09/10 07:26:13;;;;;;;;;;;;;;;;;;4971054;28;20116;-62
2023/09/10 07:28:38;;;;;;;;;;;;;;;;;;4986786;28;19925;-63
2023/09/10 07:31:07;;;;;;;;;;;;;;;;;;4985515;28;19953;-61
2023/09/10 07:33:32;;;;;;;;;;;;;;;;;;4969775;28;19918;-62
2023/09/10 07:35:58;;;;;;;;;;;;;;;;;;4985378;28;19968;-62
2023/09/10 07:38:26;;;;;;;;;;;;;;;;;;4969985;28;19992;-62
2023/09/10 07:40:51;;;;;;;;;;;;;;;;;;4969196;28;20393;-62
2023/09/10 07:43:16;;;;;;;;;;;;;;;;;;4969775;28;19926;-61
2023/09/10 07:45:45;;;;;;;;;;;;;;;;;;4968605;28;19960;-61
2023/09/10 07:48:11;;;;;;;;;;;;;;;;;;4970634;28;20389;-61
2023/09/10 07:50:37;;;;;;;;;;;;;;;;;;4969462;28;19964;-62
2023/09/10 07:53:02;;;;;;;;;;;;;;;;;;4985063;28;20344;-63
2023/09/10 07:55:27;;;;;;;;;;;;;;;;;;4970370;28;19921;-60
2023/09/10 07:57:53;;;;;;;;;;;;;;;;;;4985629;28;20468;-61
2023/09/10 08:00:18;;;;;;;;;;;;;;;;;;4969210;28;19918;-61
2023/09/10 08:02:44;;;;;;;;;;;;;;;;;;4970987;28;19925;-62
2023/09/10 08:05:09;;;;;;;;;;;;;;;;;;4983316;28;19957;-62
2023/09/10 08:07:34;;;;;;;;;;;;;;;;;;4985573;28;19955;-61
2023/09/10 08:10:00;;;;;;;;;;;;;;;;;;4970125;28;19974;-62
2023/09/10 08:12:27;;;;;;;;;;;;;;;;;;4964430;28;19921;-62
2023/09/10 08:14:55;;;;;;;;;;;;;;;;;;4984533;28;19995;-62
2023/09/10 08:17:23;;;;;;;;;;;;;;;;;;4983689;28;19921;-62
2023/09/10 08:19:48;;;;;;;;;;;;;;;;;;4982739;28;19928;-61
2023/09/10 08:22:16;;;;;;;;;;;;;;;;;;4969039;28;19956;-62
2023/09/10 08:24:41;;;;;;;;;;;;;;;;;;4969898;28;20025;-60
2023/09/10 08:27:07;;;;;;;;;;;;;;;;;;4985249;28;19918;-62
2023/09/10 08:29:32;;;;;;;;;;;;;;;;;;4984502;28;19953;-62
2023/09/10 08:31:58;;;;;;;;;;;;;;;;;;4985291;28;19925;-62
2023/09/10 08:34:24;;;;;;;;;;;;;;;;;;4971426;28;20518;-63
2023/09/10 08:36:49;;;;;;;;;;;;;;;;;;4987806;28;19918;-63
2023/09/10 08:39:14;;;;;;;;;;;;;;;;;;4971547;28;19933;-63
2023/09/10 08:41:42;;;;;;;;;;;;;;;;;;4988876;28;19942;-61
2023/09/10 08:44:10;;;;;;;;;;;;;;;;;;4988192;28;19921;-63
2023/09/10 08:46:36;;;;;;;;;;;;;;;;;;4989513;28;19929;-63
2023/09/10 08:49:01;;;;;;;;;;;;;;;;;;4979628;28;20678;-62
2023/09/10 08:51:27;;;;;;;;;;;;;;;;;;4972996;28;19921;-63
2023/09/10 08:53:52;;;;;;;;;;;;;;;;;;4993852;28;20256;-63
2023/09/10 08:56:17;;;;;;;;;;;;;;;;;;4970103;28;20292;-63
2023/09/10 08:58:45;;;;;;;;;;;;;;;;;;4975477;28;19944;-63
2023/09/10 09:01:10;;;;;;;;;;;;;;;;;;4991110;28;19922;-62
2023/09/10 09:03:35;;;;;;;;;;;;;;;;;;4971740;28;19928;-62
2023/09/10 09:06:06;;;;;;;;;;;;;;;;;;4974359;28;21982;-63
2023/09/10 09:08:34;;;;;;;;;;;;;;;;;;4991951;28;20037;-62
2023/09/10 09:11:00;;;;;;;;;;;;;;;;;;4992297;28;20829;-64
2023/09/10 09:13:27;;;;;;;;;;;;;;;;;;4989005;28;19964;-63
2023/09/10 09:15:55;;;;;;;;;;;;;;;;;;4992057;28;19975;-63
2023/09/10 09:18:21;;;;;;;;;;;;;;;;;;4991759;28;19951;-63
2023/09/10 09:20:46;;;;;;;;;;;;;;;;;;4990203;28;19925;-63
2023/09/10 09:23:14;;;;;;;;;;;;;;;;;;4972988;28;20007;-63
2023/09/10 09:25:39;;;;;;;;;;;;;;;;;;4974216;28;19918;-62
2023/09/10 09:28:05;;;;;;;;;;;;;;;;;;4972326;28;19918;-63
2023/09/10 09:30:35;;;;;;;;;;;;;;;;;;4990968;28;19917;-62
2023/09/10 09:33:03;;;;;;;;;;;;;;;;;;4990598;28;19968;-65
2023/09/10 09:35:28;;;;;;;;;;;;;;;;;;4988225;28;19956;-64
2023/09/10 09:37:53;;;;;;;;;;;;;;;;;;4990111;28;19993;-62
2023/09/10 09:40:21;;;;;;;;;;;;;;;;;;4972041;28;19921;-63
2023/09/10 09:42:46;;;;;;;;;;;;;;;;;;4974245;28;19922;-63
2023/09/10 09:45:14;;;;;;;;;;;;;;;;;;4973346;28;19928;-61
2023/09/10 09:47:39;;;;;;;;;;;;;;;;;;4969888;28;20044;-61
2023/09/10 09:50:07;;;;;;;;;;;;;;;;;;4990784;28;20027;-61
2023/09/10 09:52:34;;;;;;;;;;;;;;;;;;4992460;28;19918;-61
2023/09/10 09:55:02;;;;;;;;;;;;;;;;;;4992687;28;19943;-61
2023/09/10 09:57:27;;;;;;;;;;;;;;;;;;4969258;28;20773;-61
2023/09/10 09:59:55;;;;;;;;;;;;;;;;;;4992277;28;21564;-62
2023/09/10 10:02:23;;;;;;;;;;;;;;;;;;4968157;28;19960;-61
2023/09/10 10:04:51;;;;;;;;;;;;;;;;;;4990362;28;19952;-61
2023/09/10 10:07:22;;;;;;;;;;;;;;;;;;4973410;28;19917;-62
2023/09/10 10:09:47;;;;;;;;;;;;;;;;;;4988816;28;19921;-62
2023/09/10 10:12:12;;;;;;;;;;;;;;;;;;4992220;28;19921;-62
2023/09/10 10:14:40;;;;;;;;;;;;;;;;;;4970969;28;19971;-62
2023/09/10 10:17:08;;;;;;;;;;;;;;;;;;4974758;28;20032;-62
2023/09/10 10:19:36;;;;;;;;;;;;;;;;;;4989260;28;19944;-63
2023/09/10 10:22:05;;;;;;;;;;;;;;;;;;4991313;28;19979;-63
2023/09/10 10:24:33;;;;;;;;;;;;;;;;;;4992064;28;20737;-63
2023/09/10 10:27:00;;;;;;;;;;;;;;;;;;4989323;28;20480;-62
2023/09/10 10:29:26;;;;;;;;;;;;;;;;;;4989334;28;19957;-62
2023/09/10 10:31:51;;;;;;;;;;;;;;;;;;4972325;28;20990;-62
2023/09/10 10:34:18;;;;;;;;;;;;;;;;;;4991907;28;19921;-62
2023/09/10 10:36:44;;;;;;;;;;;;;;;;;;4969094;28;19996;-63
2023/09/10 10:39:11;;;;;;;;;;;;;;;;;;4989713;28;20491;-63
2023/09/10 10:41:42;;;;;;;;;;;;;;;;;;4989979;28;19932;-61
2023/09/10 10:44:10;;;;;;;;;;;;;;;;;;4985108;28;19933;-62
2023/09/10 10:46:35;;;;;;;;;;;;;;;;;;4971674;28;19999;-61
2023/09/10 10:49:03;;;;;;;;;;;;;;;;;;4984653;28;20027;-61
2023/09/10 10:51:28;;;;;;;;;;;;;;;;;;4969520;28;20324;-62
2023/09/10 10:53:53;;;;;;;;;;;;;;;;;;4972172;28;19957;-61
2023/09/10 10:56:19;;;;;;;;;;;;;;;;;;4986212;28;19965;-62
2023/09/10 10:58:47;;;;;;;;;;;;;;;;;;4972054;28;20468;-62
2023/09/10 11:01:14;;;;;;;;;;;;;;;;;;4987266;28;19921;-62
2023/09/10 11:03:40;;;;;;;;;;;;;;;;;;4985526;28;19972;-62
2023/09/10 11:06:05;;;;;;;;;;;;;;;;;;4969986;28;20397;-63
2023/09/10 11:08:30;;;;;;;;;;;;;;;;;;4970088;28;20282;-62
2023/09/10 11:10:55;;;;;;;;;;;;;;;;;;4971564;28;19980;-62
2023/09/10 11:13:24;;;;;;;;;;;;;;;;;;4970414;28;19924;-63
2023/09/10 11:15:49;;;;;;;;;;;;;;;;;;4967701;28;19961;-62
2023/09/10 11:18:14;;;;;;;;;;;;;;;;;;4971845;28;20012;-62
2023/09/10 11:20:39;;;;;;;;;;;;;;;;;;4968772;28;19948;-62
2023/09/10 11:23:09;;;;;;;;;;;;;;;;;;4971763;28;21969;-62
2023/09/10 11:25:37;;;;;;;;;;;;;;;;;;4971866;28;20008;-62
2023/09/10 11:28:02;;;;;;;;;;;;;;;;;;4970160;28;21757;-63
2023/09/10 11:30:27;;;;;;;;;;;;;;;;;;4985774;28;20008;-62
2023/09/10 11:32:52;;;;;;;;;;;;;;;;;;4986010;28;19924;-62
2023/09/10 11:35:18;;;;;;;;;;;;;;;;;;4985165;28;19985;-62
2023/09/10 11:37:46;;;;;;;;;;;;;;;;;;4966864;28;19926;-62
2023/09/10 11:40:14;;;;;;;;;;;;;;;;;;4987098;28;20296;-63
2023/09/10 11:42:39;;;;;;;;;;;;;;;;;;4984348;28;19922;-63
2023/09/10 11:45:05;;;;;;;;;;;;;;;;;;4985562;28;19921;-63
2023/09/10 11:47:30;;;;;;;;;;;;;;;;;;4984284;28;20001;-63
2023/09/10 11:49:55;;;;;;;;;;;;;;;;;;4969673;28;19941;-62
2023/09/10 11:52:23;;;;;;;;;;;;;;;;;;4968984;28;19961;-63
2023/09/10 11:54:51;;;;;;;;;;;;;;;;;;4966744;28;19933;-63
2023/09/10 11:57:17;;;;;;;;;;;;;;;;;;4969287;28;19921;-62
2023/09/10 11:59:45;;;;;;;;;;;;;;;;;;4967649;28;19969;-63
2023/09/10 12:02:10;;;;;;;;;;;;;;;;;;4984762;28;20080;-63
2023/09/10 12:04:36;;;;;;;;;;;;;;;;;;4965757;28;20425;-62
2023/09/10 12:07:01;;;;;;;;;;;;;;;;;;4967048;28;19922;-63
2023/09/10 12:09:29;;;;;;;;;;;;;;;;;;4987651;28;20000;-63
2023/09/10 12:11:54;;;;;;;;;;;;;;;;;;4972130;28;19921;-62
2023/09/10 12:14:19;;;;;;;;;;;;;;;;;;4989207;28;19960;-62
2023/09/10 12:16:45;;;;;;;;;;;;;;;;;;4986312;28;19918;-62
2023/09/10 12:19:10;;;;;;;;;;;;;;;;;;4972966;28;20060;-62
2023/09/10 12:21:36;;;;;;;;;;;;;;;;;;4973522;28;21400;-63
2023/09/10 12:24:01;;;;;;;;;;;;;;;;;;4989507;28;19922;-63
2023/09/10 12:26:29;;;;;;;;;;;;;;;;;;4988602;28;19929;-62
2023/09/10 12:28:55;;;;;;;;;;;;;;;;;;4988427;28;19953;-63
2023/09/10 12:31:21;;;;;;;;;;;;;;;;;;4972621;28;19922;-63
2023/09/10 12:33:46;;;;;;;;;;;;;;;;;;4970947;28;20044;-62
2023/09/10 12:36:15;;;;;;;;;;;;;;;;;;4974723;28;19932;-63
2023/09/10 12:38:43;;;;;;;;;;;;;;;;;;4988813;28;19922;-63
2023/09/10 12:41:11;;;;;;;;;;;;;;;;;;4975053;28;19922;-63
2023/09/10 12:43:41;;;;;;;;;;;;;;;;;;4979506;28;20122;-63
2023/09/10 12:46:06;;;;;;;;;;;;;;;;;;4972942;28;19957;-63
2023/09/10 12:48:35;;;;;;;;;;;;;;;;;;4993649;28;21469;-64
2023/09/10 12:51:03;;;;;;;;;;;;;;;;;;4972823;28;20007;-64
2023/09/10 12:53:31;;;;;;;;;;;;;;;;;;4974158;28;19981;-64
2023/09/10 12:55:59;;;;;;;;;;;;;;;;;;4972083;28;20533;-63
2023/09/10 12:58:24;;;;;;;;;;;;;;;;;;4991229;28;19930;-64
2023/09/10 13:00:50;;;;;;;;;;;;;;;;;;4973789;28;19981;-62
2023/09/10 13:03:23;;;;;;;;;;;;;;;;;;4990247;28;19920;-63
2023/09/10 13:05:48;;;;;;;;;;;;;;;;;;4971196;28;19927;-63
2023/09/10 13:08:16;;;;;;;;;;;;;;;;;;4968344;28;19925;-62
2023/09/10 13:10:41;;;;;;;;;;;;;;;;;;4991004;28;20535;-63
2023/09/10 13:13:07;;;;;;;;;;;;;;;;;;4993728;28;19922;-65
2023/09/10 13:15:36;;;;;;;;;;;;;;;;;;4973782;28;20036;-62
2023/09/10 13:18:01;;;;;;;;;;;;;;;;;;4973795;28;19951;-63
2023/09/10 13:20:29;;;;;;;;;;;;;;;;;;4988808;28;19932;-63
2023/09/10 13:22:56;;;;;;;;;;;;;;;;;;4992811;28;19921;-63
2023/09/10 13:25:22;;;;;;;;;;;;;;;;;;4989563;28;19932;-64
2023/09/10 13:27:47;;;;;;;;;;;;;;;;;;4973186;28;19917;-63
2023/09/10 13:30:12;;;;;;;;;;;;;;;;;;4972302;28;20016;-64
2023/09/10 13:32:37;;;;;;;;;;;;;;;;;;4990406;28;19960;-63
2023/09/10 13:35:05;;;;;;;;;;;;;;;;;;4970529;28;19921;-62
2023/09/10 13:37:31;;;;;;;;;;;;;;;;;;4974180;28;19932;-63
2023/09/10 13:39:56;;;;;;;;;;;;;;;;;;4992682;28;19940;-62
2023/09/10 13:42:24;;;;;;;;;;;;;;;;;;4972849;28;20305;-62
2023/09/10 13:44:49;;;;;;;;;;;;;;;;;;4988442;28;19921;-63
2023/09/10 13:47:15;;;;;;;;;;;;;;;;;;4971186;28;19967;-63
2023/09/10 13:49:43;;;;;;;;;;;;;;;;;;4987172;28;20830;-62
2023/09/10 13:52:11;;;;;;;;;;;;;;;;;;4986936;28;20043;-62
2023/09/10 13:54:38;;;;;;;;;;;;;;;;;;4986495;28;19929;-62
2023/09/10 13:57:04;;;;;;;;;;;;;;;;;;4970610;28;19922;-62
2023/09/10 13:59:30;;;;;;;;;;;;;;;;;;4986703;28;19929;-61
2023/09/10 14:01:55;;;;;;;;;;;;;;;;;;4971768;28;19922;-64
2023/09/10 14:04:25;;;;;;;;;;;;;;;;;;4970559;28;19980;-63
2023/09/10 14:06:55;;;;;;;;;;;;;;;;;;4986662;28;20040;-63
2023/09/10 14:09:20;;;;;;;;;;;;;;;;;;4972158;28;19949;-62
2023/09/10 14:11:46;;;;;;;;;;;;;;;;;;4973145;28;20791;-63
2023/09/10 14:14:14;;;;;;;;;;;;;;;;;;4969291;28;20057;-63
2023/09/10 14:16:42;;;;;;;;;;;;;;;;;;4987458;28;19937;-63
2023/09/10 14:19:07;;;;;;;;;;;;;;;;;;4968785;28;19926;-62
2023/09/10 14:21:34;;;;;;;;;;;;;;;;;;4986185;28;19918;-62
2023/09/10 14:24:04;;;;;;;;;;;;;;;;;;4972539;28;20365;-62
2023/09/10 14:26:29;;;;;;;;;;;;;;;;;;4986122;28;19972;-61
2023/09/10 14:28:55;;;;;;;;;;;;;;;;;;4987235;28;19933;-63
2023/09/10 14:31:20;;;;;;;;;;;;;;;;;;4972032;28;20028;-62
2023/09/10 14:33:45;;;;;;;;;;;;;;;;;;4953662;28;20674;-63
2023/09/10 14:36:10;;;;;;;;;;;;;;;;;;4971414;28;19918;-62
2023/09/10 14:38:38;;;;;;;;;;;;;;;;;;4974951;28;20782;-62
2023/09/10 14:41:04;;;;;;;;;;;;;;;;;;4971741;28;19921;-62
2023/09/10 14:43:31;;;;;;;;;;;;;;;;;;4988101;28;20135;-63
2023/09/10 14:45:57;;;;;;;;;;;;;;;;;;4966265;28;20001;-63
2023/09/10 14:48:22;;;;;;;;;;;;;;;;;;4972635;28;19921;-62
2023/09/10 14:50:47;;;;;;;;;;;;;;;;;;4968708;28;20880;-63
2023/09/10 14:53:15;;;;;;;;;;;;;;;;;;4986469;28;19917;-63
2023/09/10 14:55:43;;;;;;;;;;;;;;;;;;4986106;28;19921;-63
2023/09/10 14:58:11;;;;;;;;;;;;;;;;;;4986789;28;20025;-63
2023/09/10 15:00:37;;;;;;;;;;;;;;;;;;4986561;28;19917;-63
2023/09/10 15:03:05;;;;;;;;;;;;;;;;;;4972086;28;19953;-62
2023/09/10 15:05:32;;;;;;;;;;;;;;;;;;4985232;28;19922;-61
2023/09/10 15:08:00;;;;;;;;;;;;;;;;;;4985681;28;19921;-62
2023/09/10 15:10:29;;;;;;;;;;;;;;;;;;4986755;28;19972;-62
2023/09/10 15:12:54;;;;;;;;;;;;;;;;;;4970657;28;20001;-62
2023/09/10 15:15:19;;;;;;;;;;;;;;;;;;4971212;28;19918;-65
2023/09/10 15:17:47;;;;;;;;;;;;;;;;;;4970587;28;19926;-61
2023/09/10 15:20:15;;;;;;;;;;;;;;;;;;4970706;28;20990;-61
2023/09/10 15:22:43;;;;;;;;;;;;;;;;;;4984762;28;19928;-62
2023/09/10 15:25:11;;;;;;;;;;;;;;;;;;4970091;28;20396;-62
2023/09/10 15:27:36;;;;;;;;;;;;;;;;;;4970909;28;19922;-61
2023/09/10 15:30:04;;;;;;;;;;;;;;;;;;4985376;28;19922;-62
2023/09/10 15:32:32;;;;;;;;;;;;;;;;;;4985587;28;19921;-62
2023/09/10 15:34:57;;;;;;;;;;;;;;;;;;4970538;28;19922;-63
2023/09/10 15:37:28;;;;;;;;;;;;;;;;;;4969406;28;19972;-62
2023/09/10 15:39:55;;;;;;;;;;;;;;;;;;4985433;28;19928;-62
2023/09/10 15:42:23;;;;;;;;;;;;;;;;;;4985423;28;19922;-62
2023/09/10 15:44:48;;;;;;;;;;;;;;;;;;4985480;28;19930;-62
2023/09/10 15:47:16;;;;;;;;;;;;;;;;;;4970182;28;19928;-61
2023/09/10 15:49:42;;;;;;;;;;;;;;;;;;4969677;28;21687;-63
2023/09/10 15:52:07;;;;;;;;;;;;;;;;;;4985792;28;20000;-62
2023/09/10 15:54:33;;;;;;;;;;;;;;;;;;4969724;28;19917;-62
2023/09/10 15:57:01;;;;;;;;;;;;;;;;;;4970510;28;20024;-62
2023/09/10 15:59:26;;;;;;;;;;;;;;;;;;4969296;28;20424;-64
2023/09/10 16:01:51;;;;;;;;;;;;;;;;;;4966749;28;19924;-62
2023/09/10 16:04:16;;;;;;;;;;;;;;;;;;4973886;28;20329;-62
2023/09/10 16:06:42;;;;;;;;;;;;;;;;;;4969592;28;19917;-62
2023/09/10 16:09:07;;;;;;;;;;;;;;;;;;4971332;28;19925;-62
2023/09/10 16:11:32;;;;;;;;;;;;;;;;;;4969165;28;20064;-62
2023/09/10 16:13:57;;;;;;;;;;;;;;;;;;4969669;28;19929;-62
2023/09/10 16:16:27;;;;;;;;;;;;;;;;;;4985344;28;19925;-62
2023/09/10 16:18:55;;;;;;;;;;;;;;;;;;4984203;28;20439;-63
2023/09/10 16:21:23;;;;;;;;;;;;;;;;;;4968692;28;19968;-62
2023/09/10 16:23:52;;;;;;;;;;;;;;;;;;4972927;28;19984;-62
2023/09/10 16:26:17;;;;;;;;;;;;;;;;;;4969376;28;19968;-61
2023/09/10 16:28:45;;;;;;;;;;;;;;;;;;4980174;28;20388;-62
2023/09/10 16:31:10;;;;;;;;;;;;;;;;;;4983184;28;19917;-61
2023/09/10 16:33:38;;;;;;;;;;;;;;;;;;4984792;28;21311;-61
2023/09/10 16:36:06;;;;;;;;;;;;;;;;;;4982387;28;20036;-62
2023/09/10 16:38:31;;;;;;;;;;;;;;;;;;4973739;28;20385;-61
2023/09/10 16:40:57;;;;;;;;;;;;;;;;;;4966843;28;19929;-62